Terminal Aerodrome Forecast
Issued by NWS

Home | Current Version | Previous Version | Text Only | Print | Product List | Glossary On
Versions: 1 2 3 4 5 6 7 8 9 10 11 12 13 14 15 16 17 18 19 20 21 22
306
FTUS46 KSEW 052321
TAFHQM
TAF
KHQM 052321Z 0600/0624 25012KT 5SM HZ FEW030
     FM060500 VRB03KT P6SM SKC
     FM061000 09006KT P6SM SKC
      TEMPO 0612/0615 2SM MIFG
     FM062000 33014KT P6SM SKC=

USA.gov is the U.S. government's official web portal to all federal, state and local government web resources and services.